Time;durP1;ratioP1;P1;durP2;ratioP2;P2;SDS_P1;SDS_P2;PMS_P1;PMS_P2;Temp;Humidity;BMP_temperature;BMP_pressure;BME280_temperature;BME280_humidity;BME280_pressure;Samples;Min_cycle;Max_cycle;Signal;HPM_P1;HPM_P2
2022/12/26 00:01:22;;;;;;;55.90;14.50;;;;;;;6.43;100.00;100851.69;4961047;28;20211;-74
2022/12/26 00:03:48;;;;;;;34.83;13.40;;;;;;;6.44;100.00;100855.94;4969327;28;20188;-72
2022/12/26 00:06:17;;;;;;;75.50;15.07;;;;;;;6.44;100.00;100847.47;4972688;28;20292;-72
2022/12/26 00:08:43;;;;;;;48.43;15.63;;;;;;;6.46;100.00;100843.28;4971078;28;20219;-72
2022/12/26 00:11:09;;;;;;;43.17;14.83;;;;;;;6.47;100.00;100845.00;4944782;28;20571;-72
2022/12/26 00:13:34;;;;;;;46.13;14.67;;;;;;;6.48;100.00;100846.72;4965600;28;20231;-72
2022/12/26 00:16:05;;;;;;;41.10;15.30;;;;;;;6.48;100.00;100842.53;4966317;28;20200;-72
2022/12/26 00:18:30;;;;;;;51.47;15.37;;;;;;;6.48;100.00;100850.16;4950790;28;20220;-72
2022/12/26 00:20:56;;;;;;;46.27;15.33;;;;;;;6.46;100.00;100846.72;4972067;28;20704;-72
2022/12/26 00:23:21;;;;;;;38.73;14.80;;;;;;;6.47;100.00;100850.09;4964424;28;20188;-72
2022/12/26 00:25:47;;;;;;;38.87;14.47;;;;;;;6.45;100.00;100860.22;4953451;28;20192;-74
2022/12/26 00:28:12;;;;;;;36.30;14.93;;;;;;;6.47;100.00;100858.59;4960475;28;20220;-72
2022/12/26 00:30:38;;;;;;;50.47;17.27;;;;;;;6.46;100.00;100856.00;4948654;28;20184;-72
2022/12/26 00:33:03;;;;;;;48.63;16.00;;;;;;;6.44;100.00;100850.00;4964649;28;20201;-74
2022/12/26 00:35:29;;;;;;;43.83;15.13;;;;;;;6.42;100.00;100846.53;4969738;28;20679;-72
2022/12/26 00:37:54;;;;;;;47.83;15.97;;;;;;;6.42;100.00;100855.03;4967070;28;20231;-74
2022/12/26 00:40:20;;;;;;;35.07;15.50;;;;;;;6.41;100.00;100848.19;4969939;28;20200;-72
2022/12/26 00:42:45;;;;;;;45.17;15.87;;;;;;;6.36;100.00;100849.72;4945741;28;20236;-74
2022/12/26 00:45:11;;;;;;;37.17;15.70;;;;;;;6.36;100.00;100879.38;4966802;28;20201;-74
2022/12/26 00:47:36;;;;;;;35.03;16.40;;;;;;;6.34;100.00;100876.78;4967956;28;20288;-74
2022/12/26 00:50:02;;;;;;;41.53;15.10;;;;;;;6.34;100.00;100875.88;4965627;28;20691;-73
2022/12/26 00:52:28;;;;;;;40.80;16.17;;;;;;;6.32;100.00;100875.88;4950244;28;20217;-73
2022/12/26 00:54:53;;;;;;;33.20;14.80;;;;;;;6.29;100.00;100872.31;4968106;28;20212;-72
2022/12/26 00:57:18;;;;;;;44.17;16.37;;;;;;;6.31;100.00;100869.03;4966873;28;21106;-74
2022/12/26 00:59:44;;;;;;;40.07;14.20;;;;;;;6.30;100.00;100857.13;4962116;28;20212;-72
2022/12/26 01:02:36;;;;;;;32.63;14.23;;;;;;;6.32;100.00;100857.19;4966122;28;20731;-72
2022/12/26 01:04:55;;;;;;;38.90;14.20;;;;;;;6.34;100.00;100853.00;4958987;28;20677;-74
2022/12/26 01:07:20;;;;;;;35.03;12.87;;;;;;;6.34;100.00;100858.97;4968330;28;20196;-74
2022/12/26 01:09:46;;;;;;;31.63;13.87;;;;;;;6.36;100.00;100857.34;4961238;28;20267;-74
2022/12/26 01:12:11;;;;;;;30.83;12.60;;;;;;;6.39;100.00;100851.50;4964093;28;20666;-73
2022/12/26 01:14:36;;;;;;;35.73;13.50;;;;;;;6.40;100.00;100858.34;4967403;28;20733;-73
2022/12/26 01:17:02;;;;;;;38.57;14.30;;;;;;;6.37;100.00;100864.19;4964845;28;20259;-73
2022/12/26 01:19:27;;;;;;;33.10;13.90;;;;;;;6.39;100.00;100875.25;4960527;28;20562;-73
2022/12/26 01:21:53;;;;;;;35.17;13.33;;;;;;;6.38;100.00;100876.06;4966184;28;20211;-73
2022/12/26 01:24:18;;;;;;;34.87;12.40;;;;;;;6.37;100.00;100870.94;4966278;28;20189;-73
2022/12/26 01:26:45;;;;;;;31.43;13.63;;;;;;;6.38;100.00;100878.63;4969544;28;20196;-73
2022/12/26 01:29:10;;;;;;;32.87;12.57;;;;;;;6.38;100.00;100868.44;4965676;28;20303;-73
2022/12/26 01:31:36;;;;;;;34.43;13.47;;;;;;;6.41;100.00;100871.06;4961752;28;20788;-73
2022/12/26 01:34:01;;;;;;;33.97;13.30;;;;;;;6.42;100.00;100862.66;4959495;28;20217;-74
2022/12/26 01:36:26;;;;;;;36.90;12.93;;;;;;;6.43;100.00;100864.38;4949041;28;20203;-72
2022/12/26 01:38:52;;;;;;;52.27;13.57;;;;;;;6.45;100.00;100861.91;4964380;28;20693;-74
2022/12/26 01:41:18;;;;;;;45.70;13.43;;;;;;;6.46;100.00;100858.53;4962804;28;20255;-74
2022/12/26 01:43:56;;;;;;;45.53;14.00;;;;;;;6.48;100.00;100870.50;4961986;28;20200;-73
2022/12/26 01:46:37;;;;;;;57.33;15.33;;;;;;;6.49;100.00;100859.50;4964354;28;20230;-73
2022/12/26 01:49:17;;;;;;;42.73;14.27;;;;;;;6.51;100.00;100857.03;4961186;28;20740;-74
2022/12/26 01:51:48;;;;;;;47.80;13.27;;;;;;;6.51;100.00;100857.91;4957060;28;20216;-74
2022/12/26 01:54:14;;;;;;;40.90;13.40;;;;;;;6.54;100.00;100862.22;4964427;28;20807;-74
2022/12/26 01:56:42;;;;;;;44.57;13.50;;;;;;;6.55;100.00;100867.38;4963270;28;20196;-73
2022/12/26 01:59:15;;;;;;;41.97;13.17;;;;;;;6.55;100.00;100867.38;4962108;28;20216;-73
2022/12/26 02:05:34;;;;;;;43.57;12.13;;;;;;;6.60;100.00;100860.78;4961869;28;20592;-72
2022/12/26 02:08:22;;;;;;;44.53;13.63;;;;;;;6.62;100.00;100865.88;4966434;28;20192;-72
2022/12/26 02:11:02;;;;;;;52.60;13.03;;;;;;;6.61;100.00;100872.69;4946079;28;20231;-72
2022/12/26 02:13:29;;;;;;;44.17;13.50;;;;;;;6.63;100.00;100873.59;4961656;28;20794;-74
2022/12/26 02:15:55;;;;;;;43.57;13.63;;;;;;;6.63;100.00;100871.03;4958304;28;20220;-73
2022/12/26 02:18:22;;;;;;;40.13;13.10;;;;;;;6.67;100.00;100880.50;4947953;28;20753;-73
2022/12/26 02:20:56;;;;;;;47.27;13.10;;;;;;;6.70;100.00;100877.22;4958039;28;20397;-72
2022/12/26 02:23:51;;;;;;;51.80;14.43;;;;;;;6.69;100.00;100876.38;4969320;28;20678;-73
2022/12/26 02:26:47;;;;;;;53.20;14.53;;;;;;;6.72;100.00;100878.16;4964856;28;20200;-73
2022/12/26 02:29:24;;;;;;;59.30;15.03;;;;;;;6.74;100.00;100884.13;4957733;28;20275;-73
2022/12/26 02:32:21;;;;;;;44.83;14.80;;;;;;;6.75;100.00;100880.78;4961923;28;20196;-72
2022/12/26 02:35:15;;;;;;;52.37;15.30;;;;;;;6.77;100.00;100880.00;4956881;28;20764;-73
2022/12/26 02:38:11;;;;;;;54.87;15.77;;;;;;;6.79;100.00;100887.72;4942735;28;20348;-72
2022/12/26 02:41:02;;;;;;;50.37;15.83;;;;;;;6.80;100.00;100886.88;4958352;28;20208;-72
2022/12/26 02:47:01;;;;;;;47.50;15.43;;;;;;;6.82;100.00;100882.75;4972109;28;20208;-72
2022/12/26 02:47:02;;;;;;;44.23;14.60;;;;;;;6.82;100.00;100878.50;4956432;28;20211;-72
2022/12/26 03:15:25;;;;;;;40.60;13.80;;;;;;;7.00;100.00;100870.66;4965480;28;20229;-72
2022/12/26 03:18:00;;;;;;;37.90;13.77;;;;;;;7.01;100.00;100870.66;4965808;28;20581;-72
2022/12/26 03:20:29;;;;;;;44.53;14.30;;;;;;;7.01;100.00;100875.75;4967924;28;20288;-73
2022/12/26 03:23:06;;;;;;;43.70;14.30;;;;;;;7.02;100.00;100876.63;4961116;28;20204;-72
2022/12/26 03:28:19;;;;;;;44.93;14.73;;;;;;;7.02;100.00;100880.06;4968732;28;20637;-74
2022/12/26 03:30:50;;;;;;;53.97;14.50;;;;;;;7.04;100.00;100875.03;4965856;28;20208;-73
2022/12/26 03:36:17;;;;;;;64.03;16.37;;;;;;;7.06;100.00;100875.94;4964438;28;20212;-73
2022/12/26 03:38:54;;;;;;;57.43;16.13;;;;;;;7.05;100.00;100875.06;4949773;28;20285;-73
2022/12/26 04:20:04;;;;;;;42.57;15.23;;;;;;;7.15;100.00;100881.34;4965228;28;20343;-73
2022/12/26 04:45:55;;;;;;;30.33;12.67;;;;;;;7.19;100.00;100885.72;4967495;28;20195;-73
2022/12/26 04:51:05;;;;;;;26.33;12.23;;;;;;;7.21;100.00;100890.03;4966398;28;20684;-73
2022/12/26 04:53:30;;;;;;;28.17;12.27;;;;;;;7.21;100.00;100895.13;4966278;28;20220;-73
2022/12/26 04:55:56;;;;;;;24.87;10.80;;;;;;;7.23;100.00;100885.00;4970567;28;20228;-72
2022/12/26 04:58:23;;;;;;;23.13;11.30;;;;;;;7.23;100.00;100892.66;4969168;28;20220;-73
2022/12/26 05:00:49;;;;;;;23.77;11.80;;;;;;;7.23;100.00;100879.91;4959642;28;20259;-72
2022/12/26 05:11:32;;;;;;;30.27;13.30;;;;;;;7.29;100.00;100897.94;4963628;28;20197;-72
2022/12/26 05:13:59;;;;;;;30.80;13.00;;;;;;;7.29;100.00;100895.38;4959216;28;20212;-75
2022/12/26 05:30:24;;;;;;;39.33;15.47;;;;;;;7.42;100.00;100903.47;4965042;28;20204;-73
2022/12/26 05:35:34;;;;;;;49.13;18.27;;;;;;;7.46;100.00;100904.44;4965117;28;20247;-73
2022/12/26 05:38:00;;;;;;;45.87;18.00;;;;;;;7.48;100.00;100910.44;4965171;28;20247;-73
2022/12/26 05:40:25;;;;;;;48.67;18.60;;;;;;;7.52;100.00;100902.09;4963647;28;20622;-73
2022/12/26 05:42:51;;;;;;;46.40;18.40;;;;;;;7.55;100.00;100905.59;4956709;28;20205;-73
2022/12/26 05:45:16;;;;;;;45.40;18.20;;;;;;;7.56;100.00;100904.78;4969293;28;20350;-73
2022/12/26 05:47:42;;;;;;;47.83;17.63;;;;;;;7.59;100.00;100904.00;4966788;28;20290;-73
2022/12/26 05:50:08;;;;;;;40.67;17.47;;;;;;;7.59;100.00;100904.88;4958709;28;20236;-73
2022/12/26 05:52:33;;;;;;;43.50;17.60;;;;;;;7.62;100.00;100893.91;4957831;28;20252;-73
2022/12/26 05:54:58;;;;;;;40.90;16.90;;;;;;;7.63;100.00;100886.34;4956301;28;20216;-73
2022/12/26 05:57:24;;;;;;;40.60;16.93;;;;;;;7.64;100.00;100882.97;4954557;28;20211;-73
2022/12/26 05:59:49;;;;;;;37.17;16.47;;;;;;;7.64;100.00;100874.47;4946709;28;20223;-73
2022/12/26 06:02:15;;;;;;;39.20;16.33;;;;;;;7.66;100.00;100878.78;4960399;28;20203;-73
2022/12/26 06:04:40;;;;;;;36.77;16.70;;;;;;;7.67;100.00;100880.53;4967985;28;20189;-74
2022/12/26 06:07:05;;;;;;;36.30;15.40;;;;;;;7.67;100.00;100877.97;4960451;28;20197;-73
2022/12/26 06:09:31;;;;;;;36.50;15.50;;;;;;;7.67;100.00;100882.19;4958676;28;20220;-73
2022/12/26 06:11:57;;;;;;;36.37;14.87;;;;;;;7.69;100.00;100883.97;4966140;28;20197;-73
2022/12/26 06:14:22;;;;;;;33.03;14.03;;;;;;;7.69;100.00;100888.22;4966413;28;20220;-73
2022/12/26 06:16:48;;;;;;;30.17;13.70;;;;;;;7.69;100.00;100881.41;4965115;28;20335;-73
2022/12/26 06:19:13;;;;;;;31.37;14.73;;;;;;;7.69;100.00;100901.81;4965909;28;20707;-73
2022/12/26 06:21:38;;;;;;;28.37;13.20;;;;;;;7.71;100.00;100890.00;4965449;28;20291;-73
2022/12/26 06:24:04;;;;;;;28.57;13.27;;;;;;;7.72;100.00;100896.81;4947814;28;20250;-73
2022/12/26 06:26:30;;;;;;;27.10;13.50;;;;;;;7.72;100.00;100889.16;4972978;28;20294;-73
2022/12/26 06:28:55;;;;;;;26.80;13.23;;;;;;;7.73;100.00;100884.91;4971110;28;20319;-73
2022/12/26 06:31:22;;;;;;;25.17;12.80;;;;;;;7.73;100.00;100890.91;4962236;28;20208;-73
2022/12/26 06:33:57;;;;;;;27.07;12.83;;;;;;;7.74;100.00;100891.78;4973112;28;20200;-73
2022/12/26 06:36:24;;;;;;;27.03;13.07;;;;;;;7.75;100.00;100894.38;4966875;28;20242;-73
2022/12/26 06:38:51;;;;;;;28.40;14.67;;;;;;;7.76;100.00;100893.56;4964982;28;20205;-73
2022/12/26 06:41:18;;;;;;;24.37;13.67;;;;;;;7.79;100.00;100902.97;4959572;28;20316;-73
2022/12/26 06:43:44;;;;;;;27.23;13.63;;;;;;;7.76;100.00;100903.75;4969018;28;20200;-72
2022/12/26 06:46:13;;;;;;;27.27;15.33;;;;;;;7.78;100.00;100909.75;4967969;28;20303;-72
2022/12/26 06:48:38;;;;;;;26.63;13.60;;;;;;;7.79;100.00;100921.66;4962853;28;20280;-72
2022/12/26 06:51:05;;;;;;;20.80;12.80;;;;;;;7.80;100.00;100925.97;4967907;28;20197;-72
2022/12/26 06:53:32;;;;;;;24.20;12.07;;;;;;;7.81;100.00;100930.25;4963833;28;20288;-72
2022/12/26 06:56:11;;;;;;;20.73;11.47;;;;;;;7.83;100.00;100925.19;4966530;28;20632;-72
2022/12/26 06:58:38;;;;;;;20.10;11.33;;;;;;;7.83;100.00;100935.38;4962177;28;20790;-72
2022/12/26 07:01:17;;;;;;;20.43;11.67;;;;;;;7.83;100.00;100937.94;4965325;28;20212;-72
2022/12/26 07:03:43;;;;;;;19.40;11.43;;;;;;;7.84;100.00;100935.41;4972614;28;20272;-72
2022/12/26 07:06:19;;;;;;;21.37;11.87;;;;;;;7.85;100.00;100938.84;4955335;28;20216;-72
2022/12/26 07:08:45;;;;;;;18.00;10.47;;;;;;;7.87;100.00;100944.88;4966441;28;20215;-74
2022/12/26 07:11:22;;;;;;;17.37;10.47;;;;;;;7.88;100.00;100959.34;4951638;28;20200;-74
2022/12/26 07:13:47;;;;;;;17.07;10.57;;;;;;;7.90;100.00;100968.75;4963388;28;20284;-73
2022/12/26 07:16:13;;;;;;;15.60;10.10;;;;;;;7.90;100.00;100967.88;4971582;28;20294;-73
2022/12/26 07:18:39;;;;;;;16.00;9.43;;;;;;;7.91;100.00;100970.50;4969790;28;20239;-73
2022/12/26 07:21:09;;;;;;;14.40;9.53;;;;;;;7.95;100.00;100971.44;4966991;28;20631;-73
2022/12/26 07:23:35;;;;;;;14.07;8.37;;;;;;;7.96;100.00;100971.50;4970205;28;20227;-73
2022/12/26 07:26:01;;;;;;;17.63;9.43;;;;;;;7.99;100.00;100968.19;4967157;28;20763;-73
2022/12/26 07:28:27;;;;;;;13.60;8.80;;;;;;;8.01;100.00;100964.00;4962594;28;20220;-73
2022/12/26 07:30:53;;;;;;;15.23;9.27;;;;;;;8.04;100.00;100964.09;4966556;28;20232;-73
2022/12/26 07:33:18;;;;;;;16.53;9.93;;;;;;;8.05;100.00;100968.34;4964905;28;20228;-72
2022/12/26 07:35:44;;;;;;;16.90;10.50;;;;;;;8.08;100.00;100977.00;4959244;28;20205;-73
2022/12/26 07:38:10;;;;;;;20.60;10.47;;;;;;;8.09;100.00;100968.53;4960386;28;20344;-74
2022/12/26 07:40:35;;;;;;;19.57;10.63;;;;;;;8.08;100.00;100974.44;4962190;28;20228;-73
2022/12/26 07:43:01;;;;;;;19.60;10.87;;;;;;;8.10;100.00;100970.25;4966462;28;20197;-74
2022/12/26 07:45:26;;;;;;;20.30;11.70;;;;;;;8.11;100.00;100960.91;4963216;28;20213;-73
2022/12/26 07:47:53;;;;;;;22.67;13.30;;;;;;;8.13;100.00;100961.81;4969678;28;20197;-73
2022/12/26 07:50:19;;;;;;;21.23;12.37;;;;;;;8.13;100.00;100965.25;4963218;28;20200;-73
2022/12/26 07:52:44;;;;;;;22.40;13.80;;;;;;;8.14;100.00;100954.22;4969911;28;20207;-73
2022/12/26 07:55:11;;;;;;;25.33;14.47;;;;;;;8.16;100.00;100947.47;4967357;28;20271;-73
2022/12/26 07:57:36;;;;;;;25.23;14.30;;;;;;;8.17;100.00;100941.56;4962227;28;20215;-73
2022/12/26 08:00:03;;;;;;;28.13;14.47;;;;;;;8.16;100.00;100934.72;4970930;28;20303;-73
2022/12/26 08:02:37;;;;;;;29.93;15.40;;;;;;;8.17;100.00;100933.94;4974303;28;20196;-73
2022/12/26 08:05:03;;;;;;;26.97;15.43;;;;;;;8.21;100.00;100938.31;4965043;28;20188;-73
2022/12/26 08:07:28;;;;;;;30.77;16.27;;;;;;;8.18;100.00;100919.47;4969591;28;20568;-73
2022/12/26 08:09:53;;;;;;;25.47;15.17;;;;;;;8.16;100.00;100909.22;4965601;28;20215;-74
2022/12/26 08:12:20;;;;;;;32.53;15.73;;;;;;;8.13;100.00;100906.59;4968210;28;20193;-73
2022/12/26 08:14:46;;;;;;;30.73;16.27;;;;;;;8.11;100.00;100913.31;4962010;28;20215;-74
2022/12/26 08:17:13;;;;;;;31.03;16.80;;;;;;;8.10;100.00;100909.03;4968594;28;20259;-73
2022/12/26 08:19:38;;;;;;;30.40;16.57;;;;;;;8.10;100.00;100908.16;4963664;28;20228;-73
2022/12/26 08:22:04;;;;;;;32.80;17.77;;;;;;;8.13;100.00;100910.81;4960600;28;20203;-73
2022/12/26 08:24:29;;;;;;;35.13;18.63;;;;;;;8.16;100.00;100904.13;4959023;28;20199;-73
2022/12/26 08:26:55;;;;;;;32.50;18.83;;;;;;;8.17;100.00;100905.88;4965348;28;20589;-73
2022/12/26 08:29:20;;;;;;;38.90;19.73;;;;;;;8.18;100.00;100915.25;4966331;28;20706;-72
2022/12/26 08:31:46;;;;;;;34.13;19.80;;;;;;;8.22;100.00;100927.31;4958720;28;20200;-73
2022/12/26 08:34:12;;;;;;;33.63;19.70;;;;;;;8.22;100.00;100922.22;4966918;28;20263;-72
2022/12/26 08:36:38;;;;;;;33.63;18.87;;;;;;;8.25;100.00;100931.63;4966697;28;20542;-72
2022/12/26 08:39:04;;;;;;;38.90;20.37;;;;;;;8.24;100.00;100920.56;4961529;28;20220;-73
2022/12/26 08:41:29;;;;;;;39.53;19.73;;;;;;;8.28;100.00;100924.06;4961985;28;20231;-72
2022/12/26 08:43:55;;;;;;;37.27;20.47;;;;;;;8.28;100.00;100932.59;4964919;28;20655;-73
2022/12/26 08:46:21;;;;;;;37.00;21.03;;;;;;;8.30;100.00;100937.72;4963554;28;20203;-72
2022/12/26 08:48:47;;;;;;;38.00;20.43;;;;;;;8.30;100.00;100941.13;4965239;28;20225;-72
2022/12/26 08:51:20;;;;;;;38.17;20.37;;;;;;;8.31;100.00;100937.78;4966905;28;20232;-74
2022/12/26 08:53:48;;;;;;;34.27;19.77;;;;;;;8.33;100.00;100951.44;4961766;28;20243;-74
2022/12/26 08:56:16;;;;;;;37.27;20.60;;;;;;;8.35;100.00;100952.38;4951129;28;20212;-71
2022/12/26 08:58:43;;;;;;;39.83;20.13;;;;;;;8.36;100.00;100953.22;4947923;28;20311;-73
2022/12/26 09:01:19;;;;;;;37.83;20.50;;;;;;;8.36;100.00;100941.34;4968258;28;20223;-72
2022/12/26 09:03:45;;;;;;;36.67;21.27;;;;;;;8.37;100.00;100945.59;4963132;28;20208;-72
2022/12/26 09:06:12;;;;;;;38.37;22.27;;;;;;;8.40;100.00;100942.28;4967165;28;20193;-74
2022/12/26 09:08:39;;;;;;;41.30;22.53;;;;;;;8.48;100.00;100935.72;4961544;28;20283;-72
2022/12/26 09:11:07;;;;;;;41.50;21.97;;;;;;;8.51;100.00;100941.78;4969933;28;20196;-72
2022/12/26 09:13:34;;;;;;;41.73;22.50;;;;;;;8.53;100.00;100950.31;4961734;28;20239;-72
2022/12/26 09:16:17;;;;;;;37.30;20.40;;;;;;;8.61;100.00;100950.56;4948351;28;20678;-72
2022/12/26 09:18:44;;;;;;;36.37;21.10;;;;;;;8.62;100.00;100958.25;4963086;28;20287;-73
2022/12/26 09:21:11;;;;;;;34.43;19.60;;;;;;;8.62;100.00;100971.00;4962862;28;20694;-74
2022/12/26 09:23:37;;;;;;;39.27;21.00;;;;;;;8.63;100.00;100965.09;4968574;28;20193;-73
2022/12/26 09:26:04;;;;;;;36.33;20.50;;;;;;;8.67;100.00;100963.50;4964268;28;20219;-73
2022/12/26 09:28:31;;;;;;;36.03;21.97;;;;;;;8.69;100.00;100964.41;4961275;28;20216;-73
2022/12/26 09:31:04;;;;;;;33.03;19.80;;;;;;;8.73;100.00;100963.66;4960320;28;20203;-73
2022/12/26 09:33:32;;;;;;;34.17;19.67;;;;;;;8.77;100.00;100975.69;4961963;28;20196;-72
2022/12/26 09:35:58;;;;;;;33.90;19.60;;;;;;;8.79;100.00;100974.91;4960306;28;20219;-72
2022/12/26 09:38:24;;;;;;;30.50;18.93;;;;;;;8.80;100.00;100976.66;4968440;28;20228;-72
2022/12/26 09:40:55;;;;;;;35.10;18.77;;;;;;;8.85;100.00;100981.91;4965123;28;20192;-72
2022/12/26 09:43:38;;;;;;;27.20;17.57;;;;;;;8.87;100.00;100977.69;4921693;28;20197;-72
2022/12/26 09:46:29;;;;;;;27.90;17.83;;;;;;;8.88;100.00;100980.28;4962900;28;20510;-72
2022/12/26 09:49:03;;;;;;;31.90;18.90;;;;;;;8.90;100.00;100970.13;4963710;28;20230;-72
2022/12/26 09:51:33;;;;;;;28.87;18.30;;;;;;;8.92;100.00;100974.44;4961051;28;20195;-72
2022/12/26 09:54:01;;;;;;;31.47;18.73;;;;;;;8.94;100.00;100977.91;4964920;28;20224;-72
2022/12/26 09:56:27;;;;;;;29.83;18.83;;;;;;;8.98;100.00;100983.97;4966793;28;20200;-72
2022/12/26 09:58:58;;;;;;;26.67;17.77;;;;;;;9.01;100.00;100984.91;4968709;28;20311;-74
2022/12/26 10:01:31;;;;;;;29.17;17.87;;;;;;;9.02;100.00;100984.09;4969795;28;20204;-74
2022/12/26 10:03:58;;;;;;;26.20;16.63;;;;;;;9.03;100.00;100988.38;4966394;28;20200;-74
2022/12/26 10:06:36;;;;;;;24.73;16.67;;;;;;;9.07;100.00;100991.91;4966125;28;20291;-73
2022/12/26 10:09:22;;;;;;;28.23;17.23;;;;;;;9.07;100.00;100987.63;4955296;28;20244;-74
2022/12/26 10:11:59;;;;;;;25.60;16.73;;;;;;;9.06;100.00;100983.34;4966687;28;20215;-73
2022/12/26 10:14:32;;;;;;;25.37;17.03;;;;;;;9.05;100.00;100973.97;4962033;28;20235;-73
2022/12/26 10:17:17;;;;;;;26.27;16.03;;;;;;;9.07;100.00;100971.47;4969713;28;20204;-75
2022/12/26 10:19:51;;;;;;;25.23;16.87;;;;;;;9.06;100.00;100970.59;4963807;28;20219;-75
2022/12/26 10:22:34;;;;;;;25.37;15.87;;;;;;;9.08;100.00;100960.41;4959838;28;20208;-74
2022/12/26 10:25:01;;;;;;;25.60;15.80;;;;;;;9.12;100.00;100960.53;4966003;28;22511;-74
2022/12/26 10:27:36;;;;;;;23.33;15.80;;;;;;;9.10;100.00;100954.53;4966017;28;20200;-74
2022/12/26 10:30:06;;;;;;;24.43;15.23;;;;;;;9.08;100.00;100945.94;4966869;28;20332;-74
2022/12/26 10:32:31;;;;;;;24.40;14.63;;;;;;;9.12;100.00;100950.31;4972504;28;20203;-74
2022/12/26 10:34:58;;;;;;;24.13;15.60;;;;;;;9.14;100.00;100946.13;4965106;28;20208;-74
2022/12/26 10:37:30;;;;;;;23.93;15.67;;;;;;;9.14;100.00;100938.47;4945853;28;20287;-73
2022/12/26 10:40:10;;;;;;;22.60;15.13;;;;;;;9.18;100.00;100947.06;4964637;28;20216;-73
2022/12/26 10:42:37;;;;;;;22.60;14.47;;;;;;;9.17;100.00;100946.19;4954589;28;20192;-73
2022/12/26 10:45:16;;;;;;;22.53;14.40;;;;;;;9.19;100.00;100936.00;4949935;28;20204;-73
2022/12/26 10:47:51;;;;;;;21.27;13.97;;;;;;;9.20;100.00;100941.16;4962046;28;20196;-73
2022/12/26 10:50:23;;;;;;;24.77;15.00;;;;;;;9.18;100.00;100953.03;4964841;28;20668;-74
2022/12/26 10:52:49;;;;;;;21.10;14.37;;;;;;;9.17;100.00;100951.28;4968862;28;20284;-75
2022/12/26 10:55:18;;;;;;;21.90;14.53;;;;;;;9.18;100.00;100941.94;4969752;28;20224;-74
2022/12/26 10:57:49;;;;;;;25.33;14.90;;;;;;;9.21;100.00;100945.44;4963451;28;20201;-75
2022/12/26 11:00:21;;;;;;;24.60;15.20;;;;;;;9.35;100.00;100927.94;4968516;28;20221;-75
2022/12/26 11:03:04;;;;;;;20.67;13.73;;;;;;;9.77;100.00;100923.88;4964432;28;20583;-75
2022/12/26 11:05:31;;;;;;;18.43;12.77;;;;;;;9.69;100.00;100940.72;4968388;28;20696;-74
2022/12/26 11:08:14;;;;;;;20.73;13.57;;;;;;;9.49;100.00;100934.25;4958392;28;20251;-74
2022/12/26 11:10:46;;;;;;;21.17;14.43;;;;;;;9.43;100.00;100931.53;4965339;28;20232;-74
2022/12/26 11:13:22;;;;;;;23.23;15.30;;;;;;;9.37;100.00;100942.47;4946140;28;20541;-75
2022/12/26 11:15:50;;;;;;;20.83;13.63;;;;;;;9.36;100.00;100929.66;4961650;28;20355;-75
2022/12/26 11:18:26;;;;;;;22.13;14.47;;;;;;;9.39;100.00;100932.25;4963243;28;20227;-73
2022/12/26 11:20:52;;;;;;;21.53;13.43;;;;;;;9.41;100.00;100926.41;4965454;28;20192;-74
2022/12/26 11:23:30;;;;;;;20.30;13.50;;;;;;;9.43;100.00;100921.28;4968580;28;20203;-73
2022/12/26 11:25:58;;;;;;;17.60;12.90;;;;;;;9.39;100.00;100919.47;4966284;28;20193;-73
2022/12/26 11:28:35;;;;;;;19.17;12.83;;;;;;;9.37;100.00;100934.81;4959224;28;20221;-74
2022/12/26 11:31:04;;;;;;;19.97;12.83;;;;;;;9.37;100.00;100927.13;4969797;28;20283;-73
2022/12/26 11:33:35;;;;;;;20.23;13.07;;;;;;;9.35;100.00;100917.72;4970798;28;20203;-74
2022/12/26 11:36:15;;;;;;;16.80;12.57;;;;;;;9.38;100.00;100921.19;4963778;28;20224;-74
2022/12/26 11:38:43;;;;;;;16.53;12.10;;;;;;;9.40;100.00;100924.63;4969384;28;20223;-73
2022/12/26 11:41:31;;;;;;;18.83;11.70;;;;;;;9.43;100.00;100914.50;4971488;28;20203;-72
2022/12/26 11:44:09;;;;;;;17.43;11.17;;;;;;;9.45;100.00;100901.78;4961499;28;20196;-73
2022/12/26 11:46:42;;;;;;;16.00;11.27;;;;;;;9.44;100.00;100898.34;4964585;28;20628;-74
2022/12/26 11:49:37;;;;;;;16.67;11.20;;;;;;;9.47;100.00;100900.09;4970786;28;20294;-74
2022/12/26 11:52:28;;;;;;;17.60;10.17;;;;;;;9.45;100.00;100897.50;4966369;28;20768;-73
2022/12/26 11:54:54;;;;;;;15.70;10.50;;;;;;;9.46;100.00;100903.50;4965149;28;20231;-74
2022/12/26 11:57:32;;;;;;;14.90;9.87;;;;;;;9.45;100.00;100889.84;4966585;28;20201;-74
2022/12/26 12:00:19;;;;;;;12.83;9.43;;;;;;;9.47;100.00;100888.19;4964294;28;20228;-72
2022/12/26 12:02:45;;;;;;;13.60;10.10;;;;;;;9.47;100.00;100882.22;4961065;28;20200;-74
2022/12/26 12:05:27;;;;;;;13.17;9.33;;;;;;;9.45;100.00;100876.22;4963357;28;20200;-76
2022/12/26 12:08:03;;;;;;;12.43;8.57;;;;;;;9.45;100.00;100884.72;4963323;28;20193;-72
2022/12/26 12:10:43;;;;;;;14.33;10.03;;;;;;;9.46;100.00;100872.81;4960646;28;20254;-75
2022/12/26 12:13:23;;;;;;;14.67;8.67;;;;;;;9.49;100.00;100876.31;4951110;28;20280;-74
2022/12/26 12:15:48;;;;;;;17.60;10.67;;;;;;;9.47;100.00;100872.88;4963590;28;20243;-74
2022/12/26 12:18:17;;;;;;;13.53;9.30;;;;;;;9.47;100.00;100861.75;4967864;28;20609;-74
2022/12/26 12:20:48;;;;;;;15.07;10.00;;;;;;;9.45;100.00;100860.88;4962618;28;20207;-75
2022/12/26 12:23:23;;;;;;;13.73;9.60;;;;;;;9.48;100.00;100855.81;4960532;28;20204;-74
2022/12/26 12:25:57;;;;;;;12.90;9.37;;;;;;;9.47;100.00;100862.66;4961935;28;20192;-74
2022/12/26 12:28:36;;;;;;;13.00;9.00;;;;;;;9.47;100.00;100867.75;4963591;28;20219;-73
2022/12/26 12:31:17;;;;;;;13.70;9.47;;;;;;;9.45;100.00;100858.31;4966535;28;20399;-74
2022/12/26 12:34:10;;;;;;;14.43;10.57;;;;;;;9.40;100.00;100868.41;4961621;28;20216;-74
2022/12/26 12:37:04;;;;;;;13.53;9.37;;;;;;;9.34;100.00;100862.28;4960164;28;20599;-74
2022/12/26 12:39:43;;;;;;;13.37;9.90;;;;;;;9.31;100.00;100864.78;4966357;28;20728;-74
2022/12/26 12:42:30;;;;;;;16.23;9.90;;;;;;;9.28;100.00;100865.59;4966212;28;20234;-74
2022/12/26 12:45:27;;;;;;;14.57;10.20;;;;;;;9.29;100.00;100862.19;4966532;28;20563;-74
2022/12/26 12:48:16;;;;;;;16.30;9.83;;;;;;;9.29;100.00;100871.53;4964894;28;20205;-74
2022/12/26 12:50:42;;;;;;;15.83;10.30;;;;;;;9.28;100.00;100863.03;4956732;28;20254;-72
2022/12/26 12:53:22;;;;;;;19.00;10.37;;;;;;;9.25;100.00;100862.06;4965891;28;21066;-73
2022/12/26 12:55:58;;;;;;;13.40;8.93;;;;;;;9.26;100.00;100867.22;4964917;28;20635;-72
2022/12/26 12:58:39;;;;;;;13.03;9.20;;;;;;;9.27;100.00;100868.94;4957434;28;20224;-73
2022/12/26 13:01:12;;;;;;;12.50;8.73;;;;;;;9.30;100.00;100863.06;4966702;28;20263;-72
2022/12/26 13:03:46;;;;;;;13.33;8.90;;;;;;;9.31;100.00;100864.78;4967121;28;20235;-73
2022/12/26 13:06:26;;;;;;;14.00;8.37;;;;;;;9.31;100.00;100860.53;4957370;28;20260;-73
2022/12/26 13:08:54;;;;;;;12.37;8.27;;;;;;;9.34;100.00;100864.84;4961140;28;20221;-73
2022/12/26 13:11:35;;;;;;;10.53;7.33;;;;;;;9.38;100.00;100869.22;4958892;28;20609;-73
2022/12/26 13:14:08;;;;;;;12.83;7.23;;;;;;;9.37;100.00;100865.81;4968108;28;20214;-73
2022/12/26 13:16:44;;;;;;;9.83;6.60;;;;;;;9.35;100.00;100864.88;4955693;28;20205;-73
2022/12/26 13:19:21;;;;;;;12.20;6.60;;;;;;;9.36;100.00;100853.84;4957791;28;20319;-73
2022/12/26 13:21:49;;;;;;;10.43;6.33;;;;;;;9.42;100.00;100859.13;4963498;28;20195;-73
2022/12/26 13:24:32;;;;;;;10.10;5.57;;;;;;;9.42;100.00;100856.56;4966655;28;20244;-73
2022/12/26 13:27:05;;;;;;;10.57;5.73;;;;;;;9.43;100.00;100863.41;4965513;28;20621;-73
2022/12/26 13:29:36;;;;;;;8.73;6.03;;;;;;;9.41;100.00;100872.72;4965089;28;20710;-73
2022/12/26 13:32:04;;;;;;;7.17;5.43;;;;;;;9.39;100.00;100869.25;4967958;28;20563;-73